sensor_id;sensor_type;location;lat;lon;timestamp;temperature;humidity
73643;DHT22;61938;48.652;9.292;2022-11-02T00:00:52;6.80;99.90
73643;DHT22;61938;48.652;9.292;2022-11-02T00:03:18;6.60;99.90
73643;DHT22;61938;48.652;9.292;2022-11-02T00:05:43;5.60;99.90
73643;DHT22;61938;48.652;9.292;2022-11-02T00:08:09;5.70;99.90
73643;DHT22;61938;48.652;9.292;2022-11-02T00:10:35;6.50;99.90
73643;DHT22;61938;48.652;9.292;2022-11-02T00:13:00;6.40;99.90
73643;DHT22;61938;48.652;9.292;2022-11-02T00:15:28;6.60;99.90
73643;DHT22;61938;48.652;9.292;2022-11-02T00:17:58;6.60;99.90
73643;DHT22;61938;48.652;9.292;2022-11-02T00:20:26;6.50;99.90
73643;DHT22;61938;48.652;9.292;2022-11-02T00:22:55;6.20;99.90
73643;DHT22;61938;48.652;9.292;2022-11-02T00:25:23;6.60;99.90
73643;DHT22;61938;48.652;9.292;2022-11-02T00:27:49;7.00;99.90
73643;DHT22;61938;48.652;9.292;2022-11-02T00:30:15;8.20;99.90
73643;DHT22;61938;48.652;9.292;2022-11-02T00:32:41;6.70;99.90
73643;DHT22;61938;48.652;9.292;2022-11-02T00:35:07;6.80;99.90
73643;DHT22;61938;48.652;9.292;2022-11-02T00:37:32;6.80;99.90
73643;DHT22;61938;48.652;9.292;2022-11-02T00:39:58;6.80;99.90
73643;DHT22;61938;48.652;9.292;2022-11-02T00:42:23;6.80;99.90
73643;DHT22;61938;48.652;9.292;2022-11-02T00:44:49;6.80;99.90
73643;DHT22;61938;48.652;9.292;2022-11-02T00:47:14;6.70;99.90
73643;DHT22;61938;48.652;9.292;2022-11-02T00:49:40;6.80;99.90
73643;DHT22;61938;48.652;9.292;2022-11-02T00:52:06;6.80;99.90
73643;DHT22;61938;48.652;9.292;2022-11-02T00:54:31;6.80;99.90
73643;DHT22;61938;48.652;9.292;2022-11-02T00:56:57;6.80;99.90
73643;DHT22;61938;48.652;9.292;2022-11-02T00:59:22;9.00;99.90
73643;DHT22;61938;48.652;9.292;2022-11-02T01:01:49;6.50;99.90
73643;DHT22;61938;48.652;9.292;2022-11-02T01:04:15;6.80;99.90
73643;DHT22;61938;48.652;9.292;2022-11-02T01:06:42;6.80;99.90
73643;DHT22;61938;48.652;9.292;2022-11-02T01:09:08;6.90;99.90
73643;DHT22;61938;48.652;9.292;2022-11-02T01:11:34;7.00;99.90
73643;DHT22;61938;48.652;9.292;2022-11-02T01:14:00;7.10;99.90
73643;DHT22;61938;48.652;9.292;2022-11-02T01:16:26;7.10;99.90
73643;DHT22;61938;48.652;9.292;2022-11-02T01:18:53;7.10;99.90
73643;DHT22;61938;48.652;9.292;2022-11-02T01:21:19;7.10;99.90
73643;DHT22;61938;48.652;9.292;2022-11-02T01:23:45;7.00;99.90
73643;DHT22;61938;48.652;9.292;2022-11-02T01:26:11;7.00;99.90
73643;DHT22;61938;48.652;9.292;2022-11-02T01:28:37;6.90;99.90
73643;DHT22;61938;48.652;9.292;2022-11-02T01:31:05;6.80;99.90
73643;DHT22;61938;48.652;9.292;2022-11-02T01:33:30;5.40;99.90
73643;DHT22;61938;48.652;9.292;2022-11-02T01:35:56;6.60;99.90
73643;DHT22;61938;48.652;9.292;2022-11-02T01:38:22;6.60;99.90
73643;DHT22;61938;48.652;9.292;2022-11-02T01:40:48;6.60;99.90
73643;DHT22;61938;48.652;9.292;2022-11-02T01:49:00;6.60;99.90
73643;DHT22;61938;48.652;9.292;2022-11-02T01:51:44;6.50;99.90
73643;DHT22;61938;48.652;9.292;2022-11-02T01:54:15;8.40;99.90
73643;DHT22;61938;48.652;9.292;2022-11-02T01:56:43;6.60;99.90
73643;DHT22;61938;48.652;9.292;2022-11-02T01:59:14;6.60;99.90
73643;DHT22;61938;48.652;9.292;2022-11-02T02:01:42;6.60;99.90
73643;DHT22;61938;48.652;9.292;2022-11-02T02:04:10;6.60;99.90
73643;DHT22;61938;48.652;9.292;2022-11-02T02:06:38;6.60;99.90
73643;DHT22;61938;48.652;9.292;2022-11-02T02:09:04;6.70;99.90
73643;DHT22;61938;48.652;9.292;2022-11-02T02:11:37;6.40;99.90
73643;DHT22;61938;48.652;9.292;2022-11-02T02:14:15;6.70;99.90
73643;DHT22;61938;48.652;9.292;2022-11-02T02:19:57;6.80;99.90
73643;DHT22;61938;48.652;9.292;2022-11-02T02:25:32;6.90;99.90
73643;DHT22;61938;48.652;9.292;2022-11-02T02:28:25;6.90;99.90
73643;DHT22;61938;48.652;9.292;2022-11-02T02:30:59;6.80;99.90
73643;DHT22;61938;48.652;9.292;2022-11-02T02:36:00;6.80;99.90
73643;DHT22;61938;48.652;9.292;2022-11-02T02:38:35;6.80;99.90
73643;DHT22;61938;48.652;9.292;2022-11-02T02:41:10;6.80;99.90
73643;DHT22;61938;48.652;9.292;2022-11-02T02:44:15;6.70;99.90
73643;DHT22;61938;48.652;9.292;2022-11-02T02:46:46;6.70;99.90
73643;DHT22;61938;48.652;9.292;2022-11-02T02:49:18;6.70;99.90
73643;DHT22;61938;48.652;9.292;2022-11-02T02:51:47;6.70;99.90
73643;DHT22;61938;48.652;9.292;2022-11-02T02:54:18;6.70;99.90
73643;DHT22;61938;48.652;9.292;2022-11-02T02:56:51;6.70;99.90
73643;DHT22;61938;48.652;9.292;2022-11-02T02:59:24;6.70;99.90
73643;DHT22;61938;48.652;9.292;2022-11-02T03:01:53;6.70;99.90
73643;DHT22;61938;48.652;9.292;2022-11-02T03:04:18;6.70;99.90
73643;DHT22;61938;48.652;9.292;2022-11-02T03:06:48;6.80;99.90
73643;DHT22;61938;48.652;9.292;2022-11-02T03:09:33;6.70;99.90
73643;DHT22;61938;48.652;9.292;2022-11-02T03:12:10;6.70;99.90
73643;DHT22;61938;48.652;9.292;2022-11-02T03:17:44;7.60;99.90
73643;DHT22;61938;48.652;9.292;2022-11-02T03:23:19;6.70;99.90
73643;DHT22;61938;48.652;9.292;2022-11-02T03:25:58;6.70;99.90
73643;DHT22;61938;48.652;9.292;2022-11-02T03:28:38;6.80;99.90
73643;DHT22;61938;48.652;9.292;2022-11-02T03:31:17;6.80;99.90
73643;DHT22;61938;48.652;9.292;2022-11-02T03:33:53;6.80;99.90
73643;DHT22;61938;48.652;9.292;2022-11-02T03:36:29;6.80;99.90
73643;DHT22;61938;48.652;9.292;2022-11-02T03:39:06;6.60;99.90
73643;DHT22;61938;48.652;9.292;2022-11-02T03:41:33;6.90;99.90
73643;DHT22;61938;48.652;9.292;2022-11-02T03:44:06;6.80;99.90
73643;DHT22;61938;48.652;9.292;2022-11-02T03:46:35;6.90;99.90
73643;DHT22;61938;48.652;9.292;2022-11-02T03:49:05;6.90;99.90
73643;DHT22;61938;48.652;9.292;2022-11-02T03:51:33;7.80;99.90
73643;DHT22;61938;48.652;9.292;2022-11-02T03:54:30;6.90;99.90
73643;DHT22;61938;48.652;9.292;2022-11-02T03:57:01;6.90;99.90
73643;DHT22;61938;48.652;9.292;2022-11-02T03:59:30;6.90;99.90
73643;DHT22;61938;48.652;9.292;2022-11-02T04:01:58;6.90;99.90
73643;DHT22;61938;48.652;9.292;2022-11-02T04:04:25;6.90;99.90
73643;DHT22;61938;48.652;9.292;2022-11-02T04:06:51;6.90;99.90
73643;DHT22;61938;48.652;9.292;2022-11-02T04:09:18;6.90;99.90
73643;DHT22;61938;48.652;9.292;2022-11-02T04:11:43;7.90;99.90
73643;DHT22;61938;48.652;9.292;2022-11-02T04:14:27;7.00;99.90
73643;DHT22;61938;48.652;9.292;2022-11-02T04:17:02;7.00;99.90
73643;DHT22;61938;48.652;9.292;2022-11-02T04:19:46;6.90;99.90
73643;DHT22;61938;48.652;9.292;2022-11-02T04:22:12;7.80;99.90
73643;DHT22;61938;48.652;9.292;2022-11-02T04:24:57;7.00;99.90
73643;DHT22;61938;48.652;9.292;2022-11-02T04:27:50;7.00;99.90
73643;DHT22;61938;48.652;9.292;2022-11-02T04:30:18;7.00;99.90
73643;DHT22;61938;48.652;9.292;2022-11-02T04:32:46;7.10;99.90
73643;DHT22;61938;48.652;9.292;2022-11-02T04:35:31;7.00;99.90
73643;DHT22;61938;48.652;9.292;2022-11-02T04:37:57;7.00;99.90
73643;DHT22;61938;48.652;9.292;2022-11-02T04:40:42;7.00;99.90
73643;DHT22;61938;48.652;9.292;2022-11-02T04:43:08;7.00;99.90
73643;DHT22;61938;48.652;9.292;2022-11-02T04:45:34;7.00;99.90
73643;DHT22;61938;48.652;9.292;2022-11-02T04:48:00;7.00;99.90
73643;DHT22;61938;48.652;9.292;2022-11-02T04:50:26;7.00;99.90
73643;DHT22;61938;48.652;9.292;2022-11-02T04:52:57;6.90;99.90
73643;DHT22;61938;48.652;9.292;2022-11-02T04:55:22;8.80;99.90
73643;DHT22;61938;48.652;9.292;2022-11-02T04:57:48;7.00;99.90
73643;DHT22;61938;48.652;9.292;2022-11-02T05:00:14;7.00;99.90
73643;DHT22;61938;48.652;9.292;2022-11-02T05:02:40;6.90;99.90
73643;DHT22;61938;48.652;9.292;2022-11-02T05:05:06;6.80;99.90
73643;DHT22;61938;48.652;9.292;2022-11-02T05:07:31;6.90;99.90
73643;DHT22;61938;48.652;9.292;2022-11-02T05:09:57;6.50;99.90
73643;DHT22;61938;48.652;9.292;2022-11-02T05:12:22;6.60;99.90
73643;DHT22;61938;48.652;9.292;2022-11-02T05:14:48;6.70;99.90
73643;DHT22;61938;48.652;9.292;2022-11-02T05:17:14;6.50;99.90
73643;DHT22;61938;48.652;9.292;2022-11-02T05:19:40;7.20;99.90
73643;DHT22;61938;48.652;9.292;2022-11-02T05:22:06;6.40;99.90
73643;DHT22;61938;48.652;9.292;2022-11-02T05:24:32;6.60;99.90
73643;DHT22;61938;48.652;9.292;2022-11-02T05:26:57;6.50;99.90
73643;DHT22;61938;48.652;9.292;2022-11-02T05:29:27;6.40;99.90
73643;DHT22;61938;48.652;9.292;2022-11-02T05:31:52;6.40;99.90
73643;DHT22;61938;48.652;9.292;2022-11-02T05:34:18;6.30;99.90
73643;DHT22;61938;48.652;9.292;2022-11-02T05:36:43;6.40;99.90
73643;DHT22;61938;48.652;9.292;2022-11-02T05:39:12;6.30;99.90
73643;DHT22;61938;48.652;9.292;2022-11-02T05:41:37;6.30;99.90
73643;DHT22;61938;48.652;9.292;2022-11-02T05:44:03;6.00;99.90
73643;DHT22;61938;48.652;9.292;2022-11-02T05:46:28;6.90;99.90
73643;DHT22;61938;48.652;9.292;2022-11-02T05:48:54;6.10;99.90
73643;DHT22;61938;48.652;9.292;2022-11-02T05:51:22;6.00;99.90
73643;DHT22;61938;48.652;9.292;2022-11-02T05:53:48;6.00;99.90
73643;DHT22;61938;48.652;9.292;2022-11-02T05:56:14;6.10;99.90
73643;DHT22;61938;48.652;9.292;2022-11-02T05:58:39;6.10;99.90
73643;DHT22;61938;48.652;9.292;2022-11-02T06:01:06;6.10;99.90
73643;DHT22;61938;48.652;9.292;2022-11-02T06:03:33;6.10;99.90
73643;DHT22;61938;48.652;9.292;2022-11-02T06:06:00;6.10;99.90
73643;DHT22;61938;48.652;9.292;2022-11-02T06:08:26;5.80;99.90
73643;DHT22;61938;48.652;9.292;2022-11-02T06:10:52;6.10;99.90
73643;DHT22;61938;48.652;9.292;2022-11-02T06:13:18;6.10;99.90
73643;DHT22;61938;48.652;9.292;2022-11-02T06:15:44;6.20;99.90
73643;DHT22;61938;48.652;9.292;2022-11-02T06:18:09;6.10;99.90
73643;DHT22;61938;48.652;9.292;2022-11-02T06:20:35;8.20;99.90
73643;DHT22;61938;48.652;9.292;2022-11-02T06:23:01;6.20;99.90
73643;DHT22;61938;48.652;9.292;2022-11-02T06:25:27;6.20;99.90
73643;DHT22;61938;48.652;9.292;2022-11-02T06:27:54;6.20;99.90
73643;DHT22;61938;48.652;9.292;2022-11-02T06:30:21;6.20;99.90
73643;DHT22;61938;48.652;9.292;2022-11-02T06:32:48;6.20;99.90
73643;DHT22;61938;48.652;9.292;2022-11-02T06:35:18;6.30;99.90
73643;DHT22;61938;48.652;9.292;2022-11-02T06:37:44;6.40;99.90
73643;DHT22;61938;48.652;9.292;2022-11-02T06:40:11;6.60;99.90
73643;DHT22;61938;48.652;9.292;2022-11-02T06:42:37;6.80;99.90
73643;DHT22;61938;48.652;9.292;2022-11-02T06:45:03;7.10;99.90
73643;DHT22;61938;48.652;9.292;2022-11-02T06:47:33;7.40;99.90
73643;DHT22;61938;48.652;9.292;2022-11-02T06:49:59;7.70;99.90
73643;DHT22;61938;48.652;9.292;2022-11-02T06:52:28;8.00;99.90
73643;DHT22;61938;48.652;9.292;2022-11-02T06:54:54;8.50;99.90
73643;DHT22;61938;48.652;9.292;2022-11-02T06:57:20;8.40;99.90
73643;DHT22;61938;48.652;9.292;2022-11-02T06:59:46;8.60;99.90
73643;DHT22;61938;48.652;9.292;2022-11-02T07:02:11;8.50;99.90
73643;DHT22;61938;48.652;9.292;2022-11-02T07:04:39;8.60;99.90
73643;DHT22;61938;48.652;9.292;2022-11-02T07:07:05;7.90;99.90
73643;DHT22;61938;48.652;9.292;2022-11-02T07:09:30;8.50;99.90
73643;DHT22;61938;48.652;9.292;2022-11-02T07:11:56;8.50;99.90
73643;DHT22;61938;48.652;9.292;2022-11-02T07:14:22;8.40;99.90
73643;DHT22;61938;48.652;9.292;2022-11-02T07:16:50;8.40;99.90
73643;DHT22;61938;48.652;9.292;2022-11-02T07:19:16;8.40;99.90
73643;DHT22;61938;48.652;9.292;2022-11-02T07:21:42;8.00;99.90
73643;DHT22;61938;48.652;9.292;2022-11-02T07:24:07;8.20;99.90
73643;DHT22;61938;48.652;9.292;2022-11-02T07:26:33;8.40;99.90
73643;DHT22;61938;48.652;9.292;2022-11-02T07:28:58;8.30;99.90
73643;DHT22;61938;48.652;9.292;2022-11-02T07:31:24;8.50;99.90
73643;DHT22;61938;48.652;9.292;2022-11-02T07:33:55;8.50;99.90
73643;DHT22;61938;48.652;9.292;2022-11-02T07:36:23;8.60;99.90
73643;DHT22;61938;48.652;9.292;2022-11-02T07:38:49;8.10;99.90
73643;DHT22;61938;48.652;9.292;2022-11-02T07:41:24;8.80;99.90
73643;DHT22;61938;48.652;9.292;2022-11-02T07:43:49;8.80;99.90
73643;DHT22;61938;48.652;9.292;2022-11-02T07:46:18;9.10;99.90
73643;DHT22;61938;48.652;9.292;2022-11-02T07:48:45;9.10;99.90
73643;DHT22;61938;48.652;9.292;2022-11-02T07:51:14;9.40;99.90
73643;DHT22;61938;48.652;9.292;2022-11-02T07:53:43;9.50;99.90
73643;DHT22;61938;48.652;9.292;2022-11-02T07:56:13;9.50;99.90
73643;DHT22;61938;48.652;9.292;2022-11-02T07:58:41;10.00;99.90
73643;DHT22;61938;48.652;9.292;2022-11-02T08:01:10;9.90;99.90
73643;DHT22;61938;48.652;9.292;2022-11-02T08:03:42;10.10;99.90
73643;DHT22;61938;48.652;9.292;2022-11-02T08:06:08;10.40;99.90
73643;DHT22;61938;48.652;9.292;2022-11-02T08:08:35;10.70;99.90
73643;DHT22;61938;48.652;9.292;2022-11-02T08:11:16;10.60;99.90
73643;DHT22;61938;48.652;9.292;2022-11-02T08:13:51;10.30;99.90
73643;DHT22;61938;48.652;9.292;2022-11-02T08:16:19;11.20;99.90
73643;DHT22;61938;48.652;9.292;2022-11-02T08:18:45;11.40;99.90
73643;DHT22;61938;48.652;9.292;2022-11-02T08:21:19;11.50;99.90
73643;DHT22;61938;48.652;9.292;2022-11-02T08:23:48;11.70;99.90
73643;DHT22;61938;48.652;9.292;2022-11-02T08:26:17;12.20;99.90
73643;DHT22;61938;48.652;9.292;2022-11-02T08:28:45;12.20;99.90
73643;DHT22;61938;48.652;9.292;2022-11-02T08:31:14;14.20;99.90
73643;DHT22;61938;48.652;9.292;2022-11-02T08:33:44;10.70;99.90
73643;DHT22;61938;48.652;9.292;2022-11-02T08:36:13;12.30;99.90
73643;DHT22;61938;48.652;9.292;2022-11-02T08:38:39;12.40;99.90
73643;DHT22;61938;48.652;9.292;2022-11-02T08:41:05;11.80;99.90
73643;DHT22;61938;48.652;9.292;2022-11-02T08:43:31;13.60;99.90
73643;DHT22;61938;48.652;9.292;2022-11-02T08:46:00;13.20;99.90
73643;DHT22;61938;48.652;9.292;2022-11-02T08:48:32;11.80;99.90
73643;DHT22;61938;48.652;9.292;2022-11-02T08:50:57;14.30;99.90
73643;DHT22;61938;48.652;9.292;2022-11-02T08:53:27;13.80;99.90
73643;DHT22;61938;48.652;9.292;2022-11-02T08:55:58;12.90;99.90
73643;DHT22;61938;48.652;9.292;2022-11-02T08:58:25;12.90;99.90
73643;DHT22;61938;48.652;9.292;2022-11-02T09:00:52;13.70;99.90
73643;DHT22;61938;48.652;9.292;2022-11-02T09:03:19;12.90;99.90
73643;DHT22;61938;48.652;9.292;2022-11-02T09:05:56;12.20;99.90
73643;DHT22;61938;48.652;9.292;2022-11-02T09:08:31;13.10;99.90
73643;DHT22;61938;48.652;9.292;2022-11-02T09:10:59;13.10;99.90
73643;DHT22;61938;48.652;9.292;2022-11-02T09:13:25;13.30;99.90
73643;DHT22;61938;48.652;9.292;2022-11-02T09:16:01;13.50;99.90
73643;DHT22;61938;48.652;9.292;2022-11-02T09:18:27;15.30;99.90
73643;DHT22;61938;48.652;9.292;2022-11-02T09:20:59;13.70;99.90
73643;DHT22;61938;48.652;9.292;2022-11-02T09:23:28;13.90;99.90
73643;DHT22;61938;48.652;9.292;2022-11-02T09:26:07;14.90;99.90
73643;DHT22;61938;48.652;9.292;2022-11-02T09:29:16;14.20;99.90
73643;DHT22;61938;48.652;9.292;2022-11-02T09:31:53;14.10;99.90
73643;DHT22;61938;48.652;9.292;2022-11-02T09:34:31;13.20;99.90
73643;DHT22;61938;48.652;9.292;2022-11-02T09:40:03;14.20;99.90
73643;DHT22;61938;48.652;9.292;2022-11-02T09:45:26;13.80;99.90
73643;DHT22;61938;48.652;9.292;2022-11-02T09:47:57;13.40;99.90
73643;DHT22;61938;48.652;9.292;2022-11-02T09:50:53;13.90;99.90
73643;DHT22;61938;48.652;9.292;2022-11-02T09:56:33;14.00;99.90
73643;DHT22;61938;48.652;9.292;2022-11-02T10:16:32;13.70;99.90
73643;DHT22;61938;48.652;9.292;2022-11-02T10:19:03;13.80;99.90
73643;DHT22;61938;48.652;9.292;2022-11-02T10:21:33;13.50;99.90
73643;DHT22;61938;48.652;9.292;2022-11-02T10:24:31;13.80;99.90
73643;DHT22;61938;48.652;9.292;2022-11-02T10:27:00;13.80;99.90
73643;DHT22;61938;48.652;9.292;2022-11-02T10:29:47;13.90;99.90
73643;DHT22;61938;48.652;9.292;2022-11-02T10:32:16;13.80;99.90
73643;DHT22;61938;48.652;9.292;2022-11-02T10:35:11;13.70;99.90
73643;DHT22;61938;48.652;9.292;2022-11-02T10:38:18;13.70;99.90
73643;DHT22;61938;48.652;9.292;2022-11-02T10:41:36;13.80;99.90
73643;DHT22;61938;48.652;9.292;2022-11-02T10:51:12;14.20;99.90
73643;DHT22;61938;48.652;9.292;2022-11-02T10:53:51;12.30;99.90
73643;DHT22;61938;48.652;9.292;2022-11-02T10:56:46;14.90;99.90
73643;DHT22;61938;48.652;9.292;2022-11-02T10:59:49;14.30;99.90
73643;DHT22;61938;48.652;9.292;2022-11-02T11:02:28;14.70;99.90
73643;DHT22;61938;48.652;9.292;2022-11-02T11:05:23;14.00;99.90
73643;DHT22;61938;48.652;9.292;2022-11-02T11:11:38;14.10;99.90
73643;DHT22;61938;48.652;9.292;2022-11-02T11:14:22;16.20;99.90
73643;DHT22;61938;48.652;9.292;2022-11-02T11:17:00;15.20;99.90
73643;DHT22;61938;48.652;9.292;2022-11-02T11:19:38;15.30;99.90
73643;DHT22;61938;48.652;9.292;2022-11-02T11:22:24;14.20;99.90
73643;DHT22;61938;48.652;9.292;2022-11-02T11:25:24;14.70;99.90
73643;DHT22;61938;48.652;9.292;2022-11-02T11:28:59;12.80;99.90
73643;DHT22;61938;48.652;9.292;2022-11-02T11:31:15;14.40;99.90
73643;DHT22;61938;48.652;9.292;2022-11-02T11:33:50;16.30;99.90
73643;DHT22;61938;48.652;9.292;2022-11-02T11:36:29;14.60;99.90
73643;DHT22;61938;48.652;9.292;2022-11-02T11:38:59;15.40;99.90
73643;DHT22;61938;48.652;9.292;2022-11-02T11:41:41;14.10;99.90
73643;DHT22;61938;48.652;9.292;2022-11-02T11:44:19;13.90;99.90
73643;DHT22;61938;48.652;9.292;2022-11-02T11:50:18;14.00;99.90
73643;DHT22;61938;48.652;9.292;2022-11-02T11:52:47;13.60;99.90
73643;DHT22;61938;48.652;9.292;2022-11-02T11:58:54;12.80;99.90
73643;DHT22;61938;48.652;9.292;2022-11-02T12:01:22;14.20;99.90
73643;DHT22;61938;48.652;9.292;2022-11-02T12:03:50;13.90;99.90
73643;DHT22;61938;48.652;9.292;2022-11-02T12:06:24;15.50;99.90
73643;DHT22;61938;48.652;9.292;2022-11-02T12:09:02;15.00;99.90
73643;DHT22;61938;48.652;9.292;2022-11-02T12:17:51;15.90;99.90
73643;DHT22;61938;48.652;9.292;2022-11-02T12:26:42;17.10;99.90
73643;DHT22;61938;48.652;9.292;2022-11-02T12:29:49;17.40;99.90
73643;DHT22;61938;48.652;9.292;2022-11-02T12:38:08;17.80;99.90
73643;DHT22;61938;48.652;9.292;2022-11-02T12:43:52;17.60;99.90
73643;DHT22;61938;48.652;9.292;2022-11-02T12:52:13;17.40;99.90
73643;DHT22;61938;48.652;9.292;2022-11-02T12:54:54;17.60;99.90
73643;DHT22;61938;48.652;9.292;2022-11-02T12:57:35;16.60;99.90
73643;DHT22;61938;48.652;9.292;2022-11-02T13:00:23;19.20;99.90
73643;DHT22;61938;48.652;9.292;2022-11-02T13:05:42;17.80;99.90
73643;DHT22;61938;48.652;9.292;2022-11-02T13:08:21;18.90;99.90
73643;DHT22;61938;48.652;9.292;2022-11-02T13:10:56;17.70;99.90
73643;DHT22;61938;48.652;9.292;2022-11-02T13:13:43;18.60;99.90
73643;DHT22;61938;48.652;9.292;2022-11-02T13:16:23;17.60;99.90
73643;DHT22;61938;48.652;9.292;2022-11-02T13:18:52;16.00;99.90
73643;DHT22;61938;48.652;9.292;2022-11-02T13:21:34;17.20;99.90
73643;DHT22;61938;48.652;9.292;2022-11-02T13:24:12;18.20;99.90
73643;DHT22;61938;48.652;9.292;2022-11-02T13:27:03;17.40;99.90
73643;DHT22;61938;48.652;9.292;2022-11-02T13:30:02;16.20;99.90
73643;DHT22;61938;48.652;9.292;2022-11-02T13:33:17;16.80;99.90
73643;DHT22;61938;48.652;9.292;2022-11-02T13:35:48;15.60;99.90
73643;DHT22;61938;48.652;9.292;2022-11-02T13:50:26;13.80;99.90
73643;DHT22;61938;48.652;9.292;2022-11-02T13:53:00;14.90;99.90
73643;DHT22;61938;48.652;9.292;2022-11-02T13:56:10;16.40;99.90
73643;DHT22;61938;48.652;9.292;2022-11-02T14:01:39;14.80;99.90
73643;DHT22;61938;48.652;9.292;2022-11-02T14:04:13;15.80;99.90
73643;DHT22;61938;48.652;9.292;2022-11-02T14:06:51;14.70;99.90
73643;DHT22;61938;48.652;9.292;2022-11-02T14:09:35;14.80;99.90
73643;DHT22;61938;48.652;9.292;2022-11-02T14:14:44;14.50;99.90
73643;DHT22;61938;48.652;9.292;2022-11-02T14:17:15;14.20;99.90
73643;DHT22;61938;48.652;9.292;2022-11-02T14:19:50;14.40;99.90
73643;DHT22;61938;48.652;9.292;2022-11-02T14:22:29;15.10;99.90
73643;DHT22;61938;48.652;9.292;2022-11-02T14:25:08;15.30;99.90
73643;DHT22;61938;48.652;9.292;2022-11-02T14:27:37;14.40;99.90
73643;DHT22;61938;48.652;9.292;2022-11-02T14:30:03;14.80;99.90
73643;DHT22;61938;48.652;9.292;2022-11-02T14:32:53;14.20;99.90
73643;DHT22;61938;48.652;9.292;2022-11-02T14:35:34;14.20;99.90
73643;DHT22;61938;48.652;9.292;2022-11-02T14:41:12;13.80;99.90
